sensor_id;sensor_type;location;lat;lon;timestamp;P1;durP1;ratioP1;P2;durP2;ratioP2
76589;SDS011;65471;55.908;37.880;2023-01-19T00:01:24;33.20;;;15.23;;
76589;SDS011;65471;55.908;37.880;2023-01-19T00:03:51;39.45;;;16.65;;
76589;SDS011;65471;55.908;37.880;2023-01-19T00:06:18;31.02;;;15.02;;
76589;SDS011;65471;55.908;37.880;2023-01-19T00:08:45;31.85;;;15.27;;
76589;SDS011;65471;55.908;37.880;2023-01-19T00:11:14;33.30;;;15.68;;
76589;SDS011;65471;55.908;37.880;2023-01-19T00:13:45;43.55;;;14.35;;
76589;SDS011;65471;55.908;37.880;2023-01-19T00:16:16;28.67;;;12.88;;
76589;SDS011;65471;55.908;37.880;2023-01-19T00:21:11;30.17;;;14.02;;
76589;SDS011;65471;55.908;37.880;2023-01-19T00:23:40;30.63;;;13.80;;
76589;SDS011;65471;55.908;37.880;2023-01-19T00:26:08;32.97;;;13.68;;
76589;SDS011;65471;55.908;37.880;2023-01-19T00:28:35;29.60;;;13.68;;
76589;SDS011;65471;55.908;37.880;2023-01-19T00:31:02;21.65;;;11.77;;
76589;SDS011;65471;55.908;37.880;2023-01-19T00:33:30;35.55;;;13.98;;
76589;SDS011;65471;55.908;37.880;2023-01-19T00:35:57;32.30;;;14.75;;
76589;SDS011;65471;55.908;37.880;2023-01-19T00:38:27;29.25;;;12.95;;
76589;SDS011;65471;55.908;37.880;2023-01-19T00:40:54;37.22;;;15.77;;
76589;SDS011;65471;55.908;37.880;2023-01-19T00:43:22;37.23;;;15.33;;
76589;SDS011;65471;55.908;37.880;2023-01-19T00:45:48;31.08;;;12.95;;
76589;SDS011;65471;55.908;37.880;2023-01-19T00:48:16;16.42;;;9.82;;
76589;SDS011;65471;55.908;37.880;2023-01-19T00:50:43;23.15;;;12.40;;
76589;SDS011;65471;55.908;37.880;2023-01-19T00:53:09;40.45;;;15.45;;
76589;SDS011;65471;55.908;37.880;2023-01-19T00:55:36;36.65;;;14.60;;
76589;SDS011;65471;55.908;37.880;2023-01-19T00:58:03;41.25;;;15.27;;
76589;SDS011;65471;55.908;37.880;2023-01-19T01:00:30;24.45;;;12.88;;
76589;SDS011;65471;55.908;37.880;2023-01-19T01:02:57;22.92;;;12.70;;
76589;SDS011;65471;55.908;37.880;2023-01-19T01:05:24;25.85;;;12.05;;
76589;SDS011;65471;55.908;37.880;2023-01-19T01:07:51;29.10;;;13.90;;
76589;SDS011;65471;55.908;37.880;2023-01-19T01:10:22;30.23;;;13.60;;
76589;SDS011;65471;55.908;37.880;2023-01-19T01:12:51;31.85;;;13.60;;
76589;SDS011;65471;55.908;37.880;2023-01-19T01:15:24;27.20;;;12.57;;
76589;SDS011;65471;55.908;37.880;2023-01-19T01:17:52;22.63;;;12.02;;
76589;SDS011;65471;55.908;37.880;2023-01-19T01:20:21;30.45;;;13.75;;
76589;SDS011;65471;55.908;37.880;2023-01-19T01:22:51;26.30;;;14.65;;
76589;SDS011;65471;55.908;37.880;2023-01-19T01:25:20;31.30;;;12.35;;
76589;SDS011;65471;55.908;37.880;2023-01-19T01:27:48;30.52;;;13.25;;
76589;SDS011;65471;55.908;37.880;2023-01-19T01:30:15;23.27;;;12.30;;
76589;SDS011;65471;55.908;37.880;2023-01-19T01:32:42;31.45;;;12.88;;
76589;SDS011;65471;55.908;37.880;2023-01-19T01:35:09;31.88;;;12.70;;
76589;SDS011;65471;55.908;37.880;2023-01-19T01:37:37;28.05;;;12.60;;
76589;SDS011;65471;55.908;37.880;2023-01-19T01:40:04;29.13;;;12.68;;
76589;SDS011;65471;55.908;37.880;2023-01-19T01:42:35;29.02;;;13.77;;
76589;SDS011;65471;55.908;37.880;2023-01-19T01:45:03;25.23;;;13.32;;
76589;SDS011;65471;55.908;37.880;2023-01-19T01:47:47;33.05;;;14.00;;
76589;SDS011;65471;55.908;37.880;2023-01-19T01:50:16;21.80;;;11.77;;
76589;SDS011;65471;55.908;37.880;2023-01-19T01:52:51;31.67;;;13.93;;
76589;SDS011;65471;55.908;37.880;2023-01-19T01:55:33;26.63;;;13.23;;
76589;SDS011;65471;55.908;37.880;2023-01-19T01:58:06;30.35;;;13.45;;
76589;SDS011;65471;55.908;37.880;2023-01-19T02:00:37;28.48;;;14.10;;
76589;SDS011;65471;55.908;37.880;2023-01-19T02:03:26;35.15;;;14.52;;
76589;SDS011;65471;55.908;37.880;2023-01-19T02:05:57;26.08;;;13.05;;
76589;SDS011;65471;55.908;37.880;2023-01-19T02:08:28;31.52;;;13.25;;
76589;SDS011;65471;55.908;37.880;2023-01-19T02:11:18;37.33;;;15.00;;
76589;SDS011;65471;55.908;37.880;2023-01-19T02:14:04;35.70;;;14.93;;
76589;SDS011;65471;55.908;37.880;2023-01-19T02:16:31;33.90;;;14.93;;
76589;SDS011;65471;55.908;37.880;2023-01-19T02:19:00;41.15;;;16.27;;
76589;SDS011;65471;55.908;37.880;2023-01-19T02:24:18;30.83;;;14.73;;
76589;SDS011;65471;55.908;37.880;2023-01-19T02:26:46;34.53;;;15.25;;
76589;SDS011;65471;55.908;37.880;2023-01-19T02:29:14;42.40;;;16.73;;
76589;SDS011;65471;55.908;37.880;2023-01-19T02:31:43;43.50;;;16.25;;
76589;SDS011;65471;55.908;37.880;2023-01-19T02:34:11;36.97;;;15.20;;
76589;SDS011;65471;55.908;37.880;2023-01-19T02:39:13;41.55;;;15.13;;
76589;SDS011;65471;55.908;37.880;2023-01-19T02:41:45;35.65;;;14.35;;
76589;SDS011;65471;55.908;37.880;2023-01-19T02:44:16;26.83;;;13.57;;
76589;SDS011;65471;55.908;37.880;2023-01-19T02:46:46;36.05;;;13.25;;
76589;SDS011;65471;55.908;37.880;2023-01-19T02:49:13;37.92;;;15.57;;
76589;SDS011;65471;55.908;37.880;2023-01-19T02:51:41;32.15;;;13.48;;
76589;SDS011;65471;55.908;37.880;2023-01-19T02:57:11;28.80;;;13.93;;
76589;SDS011;65471;55.908;37.880;2023-01-19T02:59:49;37.97;;;15.15;;
76589;SDS011;65471;55.908;37.880;2023-01-19T03:19:05;25.88;;;10.52;;
76589;SDS011;65471;55.908;37.880;2023-01-19T03:21:50;20.13;;;11.60;;
76589;SDS011;65471;55.908;37.880;2023-01-19T03:24:21;27.20;;;12.88;;
76589;SDS011;65471;55.908;37.880;2023-01-19T03:26:51;24.77;;;12.55;;
76589;SDS011;65471;55.908;37.880;2023-01-19T03:29:26;23.10;;;11.75;;
76589;SDS011;65471;55.908;37.880;2023-01-19T03:31:55;33.20;;;13.15;;
76589;SDS011;65471;55.908;37.880;2023-01-19T03:34:25;23.10;;;11.10;;
76589;SDS011;65471;55.908;37.880;2023-01-19T03:36:56;26.08;;;12.00;;
76589;SDS011;65471;55.908;37.880;2023-01-19T03:39:27;22.63;;;10.45;;
76589;SDS011;65471;55.908;37.880;2023-01-19T03:41:56;27.45;;;12.63;;
76589;SDS011;65471;55.908;37.880;2023-01-19T03:44:28;22.15;;;11.32;;
76589;SDS011;65471;55.908;37.880;2023-01-19T03:46:57;20.83;;;10.90;;
76589;SDS011;65471;55.908;37.880;2023-01-19T03:49:25;22.50;;;10.93;;
76589;SDS011;65471;55.908;37.880;2023-01-19T03:51:55;21.55;;;11.38;;
76589;SDS011;65471;55.908;37.880;2023-01-19T03:54:24;20.02;;;11.75;;
76589;SDS011;65471;55.908;37.880;2023-01-19T03:56:51;20.15;;;11.05;;
76589;SDS011;65471;55.908;37.880;2023-01-19T03:59:18;25.92;;;10.90;;
76589;SDS011;65471;55.908;37.880;2023-01-19T04:01:47;26.23;;;11.45;;
76589;SDS011;65471;55.908;37.880;2023-01-19T04:04:14;30.35;;;11.30;;
76589;SDS011;65471;55.908;37.880;2023-01-19T04:06:41;21.90;;;12.05;;
76589;SDS011;65471;55.908;37.880;2023-01-19T04:09:09;28.50;;;10.43;;
76589;SDS011;65471;55.908;37.880;2023-01-19T04:11:35;28.85;;;11.57;;
76589;SDS011;65471;55.908;37.880;2023-01-19T04:14:02;27.45;;;12.80;;
76589;SDS011;65471;55.908;37.880;2023-01-19T04:16:29;26.77;;;11.80;;
76589;SDS011;65471;55.908;37.880;2023-01-19T04:18:56;33.35;;;14.07;;
76589;SDS011;65471;55.908;37.880;2023-01-19T04:21:23;27.58;;;12.20;;
76589;SDS011;65471;55.908;37.880;2023-01-19T04:23:50;34.72;;;12.73;;
76589;SDS011;65471;55.908;37.880;2023-01-19T04:26:18;43.93;;;12.80;;
76589;SDS011;65471;55.908;37.880;2023-01-19T04:28:45;19.85;;;10.35;;
76589;SDS011;65471;55.908;37.880;2023-01-19T04:31:11;31.30;;;12.45;;
76589;SDS011;65471;55.908;37.880;2023-01-19T04:33:39;22.17;;;12.00;;
76589;SDS011;65471;55.908;37.880;2023-01-19T04:36:06;26.23;;;12.88;;
76589;SDS011;65471;55.908;37.880;2023-01-19T04:38:34;24.33;;;12.48;;
76589;SDS011;65471;55.908;37.880;2023-01-19T04:41:01;22.58;;;10.82;;
76589;SDS011;65471;55.908;37.880;2023-01-19T04:43:28;43.42;;;12.85;;
76589;SDS011;65471;55.908;37.880;2023-01-19T04:45:54;30.20;;;11.93;;
76589;SDS011;65471;55.908;37.880;2023-01-19T04:48:22;20.98;;;11.55;;
76589;SDS011;65471;55.908;37.880;2023-01-19T04:50:49;21.38;;;11.98;;
76589;SDS011;65471;55.908;37.880;2023-01-19T04:53:16;27.90;;;12.38;;
76589;SDS011;65471;55.908;37.880;2023-01-19T04:55:43;24.48;;;13.50;;
76589;SDS011;65471;55.908;37.880;2023-01-19T04:58:10;26.30;;;11.52;;
76589;SDS011;65471;55.908;37.880;2023-01-19T05:00:37;23.30;;;11.90;;
76589;SDS011;65471;55.908;37.880;2023-01-19T05:03:04;28.88;;;12.50;;
76589;SDS011;65471;55.908;37.880;2023-01-19T05:05:31;16.00;;;10.27;;
76589;SDS011;65471;55.908;37.880;2023-01-19T05:07:58;27.98;;;12.85;;
76589;SDS011;65471;55.908;37.880;2023-01-19T05:10:26;25.02;;;13.43;;
76589;SDS011;65471;55.908;37.880;2023-01-19T05:12:52;26.10;;;13.57;;
76589;SDS011;65471;55.908;37.880;2023-01-19T05:15:27;29.48;;;12.52;;
76589;SDS011;65471;55.908;37.880;2023-01-19T05:17:54;26.42;;;13.52;;
76589;SDS011;65471;55.908;37.880;2023-01-19T05:20:28;30.23;;;14.75;;
76589;SDS011;65471;55.908;37.880;2023-01-19T05:22:54;41.88;;;15.85;;
76589;SDS011;65471;55.908;37.880;2023-01-19T05:25:21;31.25;;;15.15;;
76589;SDS011;65471;55.908;37.880;2023-01-19T05:27:48;30.42;;;14.63;;
76589;SDS011;65471;55.908;37.880;2023-01-19T05:30:15;40.45;;;18.45;;
76589;SDS011;65471;55.908;37.880;2023-01-19T05:32:42;36.03;;;15.02;;
76589;SDS011;65471;55.908;37.880;2023-01-19T05:35:09;30.73;;;15.88;;
76589;SDS011;65471;55.908;37.880;2023-01-19T05:37:36;38.38;;;17.15;;
76589;SDS011;65471;55.908;37.880;2023-01-19T05:40:03;32.80;;;14.98;;
76589;SDS011;65471;55.908;37.880;2023-01-19T05:42:30;30.30;;;15.88;;
76589;SDS011;65471;55.908;37.880;2023-01-19T05:44:58;27.73;;;14.07;;
76589;SDS011;65471;55.908;37.880;2023-01-19T05:47:27;33.45;;;15.60;;
76589;SDS011;65471;55.908;37.880;2023-01-19T05:49:55;33.42;;;13.57;;
76589;SDS011;65471;55.908;37.880;2023-01-19T05:52:22;28.52;;;14.88;;
76589;SDS011;65471;55.908;37.880;2023-01-19T05:54:50;35.97;;;15.27;;
76589;SDS011;65471;55.908;37.880;2023-01-19T05:57:17;45.75;;;19.95;;
76589;SDS011;65471;55.908;37.880;2023-01-19T05:59:44;46.03;;;16.60;;
76589;SDS011;65471;55.908;37.880;2023-01-19T06:02:11;37.88;;;16.63;;
76589;SDS011;65471;55.908;37.880;2023-01-19T06:04:39;31.43;;;14.57;;
76589;SDS011;65471;55.908;37.880;2023-01-19T06:07:06;30.73;;;15.57;;
76589;SDS011;65471;55.908;37.880;2023-01-19T06:09:32;33.58;;;15.98;;
76589;SDS011;65471;55.908;37.880;2023-01-19T06:11:59;30.05;;;13.77;;
76589;SDS011;65471;55.908;37.880;2023-01-19T06:14:26;36.63;;;18.25;;
76589;SDS011;65471;55.908;37.880;2023-01-19T06:16:53;37.05;;;17.80;;
76589;SDS011;65471;55.908;37.880;2023-01-19T06:19:20;38.55;;;17.70;;
76589;SDS011;65471;55.908;37.880;2023-01-19T06:21:47;48.00;;;17.13;;
76589;SDS011;65471;55.908;37.880;2023-01-19T06:24:17;47.30;;;17.88;;
76589;SDS011;65471;55.908;37.880;2023-01-19T06:26:44;45.83;;;19.10;;
76589;SDS011;65471;55.908;37.880;2023-01-19T06:29:11;35.78;;;18.17;;
76589;SDS011;65471;55.908;37.880;2023-01-19T06:31:39;57.03;;;19.02;;
76589;SDS011;65471;55.908;37.880;2023-01-19T06:34:08;53.35;;;20.33;;
76589;SDS011;65471;55.908;37.880;2023-01-19T06:36:35;45.42;;;19.23;;
76589;SDS011;65471;55.908;37.880;2023-01-19T06:39:03;41.25;;;19.23;;
76589;SDS011;65471;55.908;37.880;2023-01-19T06:41:32;39.10;;;18.75;;
76589;SDS011;65471;55.908;37.880;2023-01-19T06:43:59;43.65;;;18.27;;
76589;SDS011;65471;55.908;37.880;2023-01-19T06:46:26;52.90;;;21.15;;
76589;SDS011;65471;55.908;37.880;2023-01-19T06:48:54;41.78;;;17.42;;
76589;SDS011;65471;55.908;37.880;2023-01-19T06:51:21;42.50;;;16.95;;
76589;SDS011;65471;55.908;37.880;2023-01-19T06:53:48;38.00;;;17.85;;
76589;SDS011;65471;55.908;37.880;2023-01-19T06:56:15;43.85;;;19.98;;
76589;SDS011;65471;55.908;37.880;2023-01-19T06:58:42;47.60;;;20.52;;
76589;SDS011;65471;55.908;37.880;2023-01-19T07:01:09;51.75;;;20.30;;
76589;SDS011;65471;55.908;37.880;2023-01-19T07:03:36;43.10;;;19.35;;
76589;SDS011;65471;55.908;37.880;2023-01-19T07:06:04;57.35;;;20.80;;
76589;SDS011;65471;55.908;37.880;2023-01-19T07:08:34;56.53;;;21.13;;
76589;SDS011;65471;55.908;37.880;2023-01-19T07:11:03;43.08;;;17.65;;
76589;SDS011;65471;55.908;37.880;2023-01-19T07:13:53;52.47;;;18.90;;
76589;SDS011;65471;55.908;37.880;2023-01-19T07:16:21;59.03;;;21.05;;
76589;SDS011;65471;55.908;37.880;2023-01-19T07:18:48;53.85;;;21.00;;
76589;SDS011;65471;55.908;37.880;2023-01-19T07:21:15;40.47;;;15.52;;
76589;SDS011;65471;55.908;37.880;2023-01-19T07:23:43;60.90;;;22.08;;
76589;SDS011;65471;55.908;37.880;2023-01-19T07:26:09;55.13;;;21.48;;
76589;SDS011;65471;55.908;37.880;2023-01-19T07:28:36;59.70;;;21.55;;
76589;SDS011;65471;55.908;37.880;2023-01-19T07:31:03;60.10;;;21.63;;
76589;SDS011;65471;55.908;37.880;2023-01-19T07:33:30;48.88;;;20.98;;
76589;SDS011;65471;55.908;37.880;2023-01-19T07:35:57;46.50;;;20.35;;
76589;SDS011;65471;55.908;37.880;2023-01-19T07:38:24;53.92;;;21.50;;
76589;SDS011;65471;55.908;37.880;2023-01-19T07:40:51;57.15;;;21.92;;
76589;SDS011;65471;55.908;37.880;2023-01-19T07:43:19;48.75;;;19.65;;
76589;SDS011;65471;55.908;37.880;2023-01-19T07:45:48;66.32;;;21.20;;
76589;SDS011;65471;55.908;37.880;2023-01-19T07:48:14;51.03;;;20.85;;
76589;SDS011;65471;55.908;37.880;2023-01-19T07:50:41;60.55;;;21.58;;
76589;SDS011;65471;55.908;37.880;2023-01-19T07:53:08;53.65;;;20.70;;
76589;SDS011;65471;55.908;37.880;2023-01-19T07:55:39;67.78;;;24.10;;
76589;SDS011;65471;55.908;37.880;2023-01-19T07:58:06;61.08;;;22.33;;
76589;SDS011;65471;55.908;37.880;2023-01-19T08:00:33;52.13;;;20.23;;
76589;SDS011;65471;55.908;37.880;2023-01-19T08:03:01;71.20;;;24.58;;
76589;SDS011;65471;55.908;37.880;2023-01-19T08:05:29;70.78;;;23.48;;
76589;SDS011;65471;55.908;37.880;2023-01-19T08:07:56;64.85;;;23.25;;
76589;SDS011;65471;55.908;37.880;2023-01-19T08:10:24;55.33;;;22.15;;
76589;SDS011;65471;55.908;37.880;2023-01-19T08:12:57;52.25;;;21.05;;
76589;SDS011;65471;55.908;37.880;2023-01-19T08:15:27;68.75;;;24.98;;
76589;SDS011;65471;55.908;37.880;2023-01-19T08:17:57;76.43;;;25.65;;
76589;SDS011;65471;55.908;37.880;2023-01-19T08:20:26;70.70;;;24.88;;
76589;SDS011;65471;55.908;37.880;2023-01-19T08:22:53;59.53;;;22.15;;
76589;SDS011;65471;55.908;37.880;2023-01-19T08:25:38;54.65;;;22.02;;
76589;SDS011;65471;55.908;37.880;2023-01-19T08:28:11;79.65;;;25.77;;
76589;SDS011;65471;55.908;37.880;2023-01-19T08:30:40;78.13;;;25.30;;
76589;SDS011;65471;55.908;37.880;2023-01-19T08:33:12;71.45;;;23.35;;
76589;SDS011;65471;55.908;37.880;2023-01-19T08:35:48;81.47;;;25.20;;
76589;SDS011;65471;55.908;37.880;2023-01-19T08:38:17;67.90;;;23.13;;
76589;SDS011;65471;55.908;37.880;2023-01-19T08:40:44;49.33;;;20.88;;
76589;SDS011;65471;55.908;37.880;2023-01-19T08:43:12;99.40;;;29.80;;
76589;SDS011;65471;55.908;37.880;2023-01-19T08:45:42;77.85;;;26.27;;
76589;SDS011;65471;55.908;37.880;2023-01-19T08:48:15;66.82;;;24.08;;
76589;SDS011;65471;55.908;37.880;2023-01-19T08:50:47;88.72;;;27.83;;
76589;SDS011;65471;55.908;37.880;2023-01-19T08:53:15;76.55;;;26.30;;
76589;SDS011;65471;55.908;37.880;2023-01-19T08:55:42;73.97;;;24.23;;
76589;SDS011;65471;55.908;37.880;2023-01-19T08:58:09;76.60;;;28.67;;
76589;SDS011;65471;55.908;37.880;2023-01-19T09:00:36;71.10;;;28.20;;
76589;SDS011;65471;55.908;37.880;2023-01-19T09:03:05;77.47;;;26.08;;
76589;SDS011;65471;55.908;37.880;2023-01-19T09:05:34;85.80;;;39.00;;
76589;SDS011;65471;55.908;37.880;2023-01-19T09:08:05;68.38;;;25.15;;
76589;SDS011;65471;55.908;37.880;2023-01-19T09:10:36;65.05;;;25.08;;
76589;SDS011;65471;55.908;37.880;2023-01-19T09:13:05;77.80;;;27.23;;
76589;SDS011;65471;55.908;37.880;2023-01-19T09:15:42;77.90;;;29.42;;
76589;SDS011;65471;55.908;37.880;2023-01-19T09:18:13;68.78;;;25.50;;
76589;SDS011;65471;55.908;37.880;2023-01-19T09:20:41;74.43;;;30.95;;
76589;SDS011;65471;55.908;37.880;2023-01-19T09:23:10;69.80;;;25.73;;
76589;SDS011;65471;55.908;37.880;2023-01-19T09:25:38;87.70;;;32.78;;
76589;SDS011;65471;55.908;37.880;2023-01-19T09:28:07;59.33;;;20.88;;
76589;SDS011;65471;55.908;37.880;2023-01-19T09:30:38;87.55;;;24.60;;
76589;SDS011;65471;55.908;37.880;2023-01-19T09:33:07;74.72;;;27.90;;
76589;SDS011;65471;55.908;37.880;2023-01-19T09:35:37;71.10;;;24.42;;
76589;SDS011;65471;55.908;37.880;2023-01-19T09:38:05;65.55;;;25.38;;
76589;SDS011;65471;55.908;37.880;2023-01-19T09:40:35;76.72;;;28.52;;
76589;SDS011;65471;55.908;37.880;2023-01-19T09:46:02;58.67;;;23.52;;
76589;SDS011;65471;55.908;37.880;2023-01-19T09:48:56;83.65;;;25.02;;
76589;SDS011;65471;55.908;37.880;2023-01-19T09:51:28;71.90;;;25.25;;
76589;SDS011;65471;55.908;37.880;2023-01-19T09:56:39;78.80;;;23.23;;
76589;SDS011;65471;55.908;37.880;2023-01-19T09:59:25;65.50;;;23.73;;
76589;SDS011;65471;55.908;37.880;2023-01-19T10:02:05;71.30;;;26.40;;
76589;SDS011;65471;55.908;37.880;2023-01-19T10:04:42;61.63;;;24.17;;
76589;SDS011;65471;55.908;37.880;2023-01-19T10:19:23;47.08;;;18.05;;
76589;SDS011;65471;55.908;37.880;2023-01-19T10:21:48;74.35;;;23.63;;
76589;SDS011;65471;55.908;37.880;2023-01-19T10:24:18;73.68;;;22.42;;
76589;SDS011;65471;55.908;37.880;2023-01-19T10:26:54;80.70;;;27.27;;
76589;SDS011;65471;55.908;37.880;2023-01-19T10:32:07;81.03;;;24.83;;
76589;SDS011;65471;55.908;37.880;2023-01-19T10:34:49;81.72;;;25.17;;
76589;SDS011;65471;55.908;37.880;2023-01-19T10:42:39;67.03;;;26.35;;
76589;SDS011;65471;55.908;37.880;2023-01-19T10:45:14;68.53;;;24.75;;
76589;SDS011;65471;55.908;37.880;2023-01-19T10:47:42;85.18;;;25.38;;
76589;SDS011;65471;55.908;37.880;2023-01-19T10:50:21;62.85;;;24.73;;
76589;SDS011;65471;55.908;37.880;2023-01-19T10:52:55;66.97;;;25.73;;
76589;SDS011;65471;55.908;37.880;2023-01-19T10:57:56;73.75;;;24.05;;
76589;SDS011;65471;55.908;37.880;2023-01-19T11:00:29;88.18;;;28.25;;
76589;SDS011;65471;55.908;37.880;2023-01-19T11:02:57;67.60;;;25.05;;
76589;SDS011;65471;55.908;37.880;2023-01-19T11:05:27;90.25;;;24.75;;
76589;SDS011;65471;55.908;37.880;2023-01-19T11:07:56;80.57;;;27.25;;
76589;SDS011;65471;55.908;37.880;2023-01-19T11:10:27;76.50;;;25.25;;
76589;SDS011;65471;55.908;37.880;2023-01-19T11:15:55;71.07;;;24.70;;
76589;SDS011;65471;55.908;37.880;2023-01-19T11:18:38;96.45;;;27.33;;
76589;SDS011;65471;55.908;37.880;2023-01-19T11:21:15;72.40;;;24.50;;
76589;SDS011;65471;55.908;37.880;2023-01-19T11:26:29;33.83;;;12.98;;
76589;SDS011;65471;55.908;37.880;2023-01-19T11:29:00;58.47;;;24.48;;
76589;SDS011;65471;55.908;37.880;2023-01-19T11:34:02;76.80;;;24.70;;
76589;SDS011;65471;55.908;37.880;2023-01-19T11:36:34;81.88;;;26.20;;
76589;SDS011;65471;55.908;37.880;2023-01-19T11:41:37;75.13;;;22.70;;
76589;SDS011;65471;55.908;37.880;2023-01-19T11:44:21;63.50;;;22.95;;
76589;SDS011;65471;55.908;37.880;2023-01-19T11:46:52;88.88;;;26.52;;
76589;SDS011;65471;55.908;37.880;2023-01-19T11:52:20;78.30;;;24.73;;
76589;SDS011;65471;55.908;37.880;2023-01-19T11:55:10;75.78;;;24.02;;
76589;SDS011;65471;55.908;37.880;2023-01-19T11:57:50;85.40;;;26.60;;
76589;SDS011;65471;55.908;37.880;2023-01-19T12:00:27;71.10;;;25.50;;
76589;SDS011;65471;55.908;37.880;2023-01-19T12:03:18;80.45;;;26.15;;
76589;SDS011;65471;55.908;37.880;2023-01-19T12:05:54;69.63;;;25.05;;
76589;SDS011;65471;55.908;37.880;2023-01-19T12:08:49;80.55;;;24.88;;
76589;SDS011;65471;55.908;37.880;2023-01-19T12:11:19;55.03;;;18.98;;
76589;SDS011;65471;55.908;37.880;2023-01-19T12:13:50;86.07;;;25.95;;
76589;SDS011;65471;55.908;37.880;2023-01-19T12:16:19;86.82;;;28.45;;
76589;SDS011;65471;55.908;37.880;2023-01-19T12:21:46;69.65;;;25.27;;
76589;SDS011;65471;55.908;37.880;2023-01-19T12:24:15;90.68;;;26.45;;
76589;SDS011;65471;55.908;37.880;2023-01-19T12:29:33;75.88;;;25.27;;
76589;SDS011;65471;55.908;37.880;2023-01-19T12:34:40;81.65;;;26.55;;
76589;SDS011;65471;55.908;37.880;2023-01-19T12:37:29;83.25;;;27.73;;
76589;SDS011;65471;55.908;37.880;2023-01-19T12:40:03;75.60;;;25.38;;
76589;SDS011;65471;55.908;37.880;2023-01-19T12:42:45;82.88;;;25.17;;
76589;SDS011;65471;55.908;37.880;2023-01-19T12:45:23;79.35;;;27.30;;
76589;SDS011;65471;55.908;37.880;2023-01-19T12:47:54;67.55;;;24.60;;
76589;SDS011;65471;55.908;37.880;2023-01-19T12:50:24;76.10;;;26.77;;
76589;SDS011;65471;55.908;37.880;2023-01-19T12:52:53;71.10;;;26.60;;
76589;SDS011;65471;55.908;37.880;2023-01-19T12:55:30;73.13;;;26.73;;
76589;SDS011;65471;55.908;37.880;2023-01-19T12:58:19;85.07;;;28.00;;
76589;SDS011;65471;55.908;37.880;2023-01-19T13:00:49;104.15;;;29.95;;
76589;SDS011;65471;55.908;37.880;2023-01-19T13:03:56;88.80;;;29.27;;
76589;SDS011;65471;55.908;37.880;2023-01-19T13:09:31;86.18;;;27.52;;
76589;SDS011;65471;55.908;37.880;2023-01-19T13:15:27;89.15;;;28.20;;
76589;SDS011;65471;55.908;37.880;2023-01-19T13:18:00;87.82;;;27.92;;
76589;SDS011;65471;55.908;37.880;2023-01-19T13:20:35;84.25;;;28.02;;
76589;SDS011;65471;55.908;37.880;2023-01-19T13:23:22;85.43;;;26.48;;
76589;SDS011;65471;55.908;37.880;2023-01-19T13:25:57;81.57;;;27.00;;
76589;SDS011;65471;55.908;37.880;2023-01-19T13:28:38;77.35;;;27.08;;
76589;SDS011;65471;55.908;37.880;2023-01-19T13:31:08;70.05;;;26.52;;
76589;SDS011;65471;55.908;37.880;2023-01-19T13:33:47;82.05;;;26.02;;
76589;SDS011;65471;55.908;37.880;2023-01-19T13:38:51;102.70;;;27.75;;
76589;SDS011;65471;55.908;37.880;2023-01-19T13:41:21;89.37;;;26.70;;
76589;SDS011;65471;55.908;37.880;2023-01-19T13:43:56;91.30;;;27.40;;
76589;SDS011;65471;55.908;37.880;2023-01-19T13:46:26;83.80;;;27.40;;
76589;SDS011;65471;55.908;37.880;2023-01-19T13:48:56;72.47;;;24.75;;
76589;SDS011;65471;55.908;37.880;2023-01-19T13:51:26;95.43;;;26.40;;
76589;SDS011;65471;55.908;37.880;2023-01-19T13:53:57;81.00;;;26.40;;
76589;SDS011;65471;55.908;37.880;2023-01-19T13:56:25;85.53;;;26.52;;
76589;SDS011;65471;55.908;37.880;2023-01-19T13:58:58;81.18;;;26.88;;
76589;SDS011;65471;55.908;37.880;2023-01-19T14:01:27;78.65;;;25.60;;
76589;SDS011;65471;55.908;37.880;2023-01-19T14:03:55;69.20;;;24.35;;
76589;SDS011;65471;55.908;37.880;2023-01-19T14:06:30;69.97;;;24.70;;
76589;SDS011;65471;55.908;37.880;2023-01-19T14:09:06;80.63;;;24.92;;
76589;SDS011;65471;55.908;37.880;2023-01-19T14:11:40;60.22;;;22.35;;
76589;SDS011;65471;55.908;37.880;2023-01-19T14:14:20;73.13;;;23.80;;
76589;SDS011;65471;55.908;37.880;2023-01-19T14:16:53;80.63;;;26.17;;
76589;SDS011;65471;55.908;37.880;2023-01-19T14:19:20;84.63;;;27.17;;
76589;SDS011;65471;55.908;37.880;2023-01-19T14:21:56;61.22;;;24.90;;
76589;SDS011;65471;55.908;37.880;2023-01-19T14:24:27;72.75;;;25.63;;
76589;SDS011;65471;55.908;37.880;2023-01-19T14:27:15;83.63;;;27.45;;
76589;SDS011;65471;55.908;37.880;2023-01-19T14:29:45;85.13;;;27.67;;
76589;SDS011;65471;55.908;37.880;2023-01-19T14:32:16;82.75;;;27.08;;
76589;SDS011;65471;55.908;37.880;2023-01-19T14:35:12;80.78;;;27.90;;
76589;SDS011;65471;55.908;37.880;2023-01-19T14:37:45;83.63;;;27.38;;
76589;SDS011;65471;55.908;37.880;2023-01-19T14:45:20;82.82;;;25.77;;
76589;SDS011;65471;55.908;37.880;2023-01-19T14:48:00;72.85;;;26.83;;
76589;SDS011;65471;55.908;37.880;2023-01-19T14:50:32;90.03;;;29.25;;
76589;SDS011;65471;55.908;37.880;2023-01-19T14:53:03;95.75;;;27.77;;
76589;SDS011;65471;55.908;37.880;2023-01-19T14:55:34;81.82;;;27.15;;
76589;SDS011;65471;55.908;37.880;2023-01-19T14:58:12;81.90;;;28.15;;
76589;SDS011;65471;55.908;37.880;2023-01-19T15:00:41;78.80;;;26.30;;
76589;SDS011;65471;55.908;37.880;2023-01-19T15:03:08;100.03;;;28.20;;
76589;SDS011;65471;55.908;37.880;2023-01-19T15:05:36;78.85;;;28.13;;
76589;SDS011;65471;55.908;37.880;2023-01-19T15:08:04;68.45;;;24.25;;
76589;SDS011;65471;55.908;37.880;2023-01-19T15:10:33;86.68;;;28.48;;
76589;SDS011;65471;55.908;37.880;2023-01-19T15:13:01;70.20;;;27.25;;
76589;SDS011;65471;55.908;37.880;2023-01-19T15:15:29;80.15;;;26.45;;
76589;SDS011;65471;55.908;37.880;2023-01-19T15:18:00;61.40;;;24.55;;
76589;SDS011;65471;55.908;37.880;2023-01-19T15:20:29;63.97;;;22.88;;
76589;SDS011;65471;55.908;37.880;2023-01-19T15:22:55;70.72;;;25.13;;
76589;SDS011;65471;55.908;37.880;2023-01-19T15:25:23;52.03;;;21.80;;
76589;SDS011;65471;55.908;37.880;2023-01-19T15:27:52;51.50;;;20.88;;
76589;SDS011;65471;55.908;37.880;2023-01-19T15:30:27;42.13;;;20.73;;
76589;SDS011;65471;55.908;37.880;2023-01-19T15:32:59;42.85;;;19.15;;
76589;SDS011;65471;55.908;37.880;2023-01-19T15:35:29;45.08;;;19.63;;
76589;SDS011;65471;55.908;37.880;2023-01-19T15:37:56;49.33;;;19.90;;
76589;SDS011;65471;55.908;37.880;2023-01-19T15:40:23;42.67;;;19.85;;
76589;SDS011;65471;55.908;37.880;2023-01-19T15:42:50;36.67;;;18.27;;
76589;SDS011;65471;55.908;37.880;2023-01-19T15:48:04;41.63;;;18.38;;
76589;SDS011;65471;55.908;37.880;2023-01-19T15:50:40;29.42;;;17.15;;
76589;SDS011;65471;55.908;37.880;2023-01-19T15:53:16;34.42;;;18.85;;
76589;SDS011;65471;55.908;37.880;2023-01-19T15:55:47;32.33;;;16.42;;
76589;SDS011;65471;55.908;37.880;2023-01-19T15:58:15;24.77;;;12.82;;
76589;SDS011;65471;55.908;37.880;2023-01-19T16:00:43;34.83;;;18.20;;
76589;SDS011;65471;55.908;37.880;2023-01-19T16:03:21;48.97;;;17.92;;